Cactus Peak, Santa Catalina Island Weather observations

Data are for 10 minute period ending at time listed.
 Day   Time   Solar   Ave.   Ave.  Ave.  Vector    Max.   Stn.    Total
  of    of     Rad.   Air    Rel.  Wind   Wind     Wind   Baro.  Precip.
Year   Day            Temp.  Hum.  Speed  Dir.     Gust   Pres.         
2016   (PST)   W/m2    F      %     mph   deg.      mph    mb.     in.  
------------------------------------------------------------------------
 146    2:00    0.0    52   96.5     5    320.2     6.6    999.0   0.00  
 146    2:10    0.0    52   96.7     5    314.8     6.6    999.0   0.00  
 146    2:20    0.0    52   96.8     4    283.8     7.2    999.0   0.00  
 146    2:30    0.0    52   96.9     5    282.5     8.4    999.0   0.00  
 146    2:40    0.0    53   97.0     5    283.4     8.4    999.0   0.00  
 146    2:50    0.0    53   97.0     4    308.1     6.0    999.0   0.00  
 146    3:00    0.0    53   97.1     5    291.9     7.8    999.0   0.00  
 146    3:10    0.0    53   97.0     5    288.5     6.6    999.0   0.00  
 146    3:20    0.0    53   96.9     4    324.8     6.0    999.0   0.00  
 146    3:30    0.0    52   97.0     5    302.5     7.2    999.0   0.00  
 146    3:40    0.0    52   97.0     5    271.3     7.8    999.0   0.00  
 146    3:50    0.0    53   96.6     5    265.8     9.0    999.0   0.00  
 146    4:00    0.0    52   96.5     5    291.2     7.2    999.0   0.00  
 146    4:10    0.0    52   96.8     5    294.9     7.8    999.0   0.00  
 146    4:20    0.0    52   96.9     4    308.6     7.2    999.0   0.00  
 146    4:30    0.0    52   97.1     4    307.4     6.6    999.0   0.00  
 146    4:40    0.0    52   97.2     6    292.6     9.0    999.0   0.00  
 146    4:50    1.0    52   97.1     6    310.1     8.4    999.0   0.00  
 146    5:00    5.0    52   97.1     5    321.7     7.2    999.0   0.00  
 146    5:10    9.0    52   97.3     6    322.3     8.4    999.0   0.00  
 146    5:20   13.0    52   97.4     7    330.7     9.6    999.0   0.00  
 146    5:30   18.0    52   97.5     6    332.6     7.8    999.0   0.00  
 146    5:40   25.0    52   97.6     6    305.8     8.4    999.0   0.00  
 146    5:50   73.0    52   97.6     6    296.5     9.0    999.0   0.00  
 146    6:00  170.0    53   97.0     6    307.5     9.0    999.0   0.00  
 146    6:10  216.0    54   95.3     6    316.5     9.6    999.0   0.00  
 146    6:20  272.0    55   93.2     7    318.8    10.8    999.0   0.00  
 146    6:30  334.0    56   90.8     6    310.4    10.2    999.0   0.00  
 146    6:40  391.0    57   87.2     9    336.8    14.3    999.0   0.00  
 146    6:50  363.0    56   87.4    11    342.1    14.9    999.0   0.00  
 146    7:00  215.0    56   88.9    11    334.0    14.3    999.0   0.00  
 146    7:10  225.0    55   89.8    10    332.1    13.1    999.0   0.00  
 146    7:20  307.0    56   87.9     9    323.6    13.7    999.0   0.00  
 146    7:30  287.0    56   88.1     9    299.5    13.1    999.0   0.00  
 146    7:40  324.0    56   86.5     7    308.8    11.3    999.0   0.00  
 146    7:50  476.0    57   85.4     7    277.3    11.9    999.0   0.00  
 146    8:00  526.0    57   85.6     8    251.3    13.7    999.0   0.00  
 146    8:10  616.0    56   85.8     8    244.6    11.9    999.0   0.00  
 146    8:20  647.0    57   83.4     8    246.1    12.5    999.0   0.00  
 146    8:30  503.0    56   84.3     8    250.8    11.9    999.0   0.00  
 146    8:40  557.0    57   80.7     8    292.4    12.5    999.0   0.00  
 146    8:50  387.0    57   81.6     8    281.3    13.1    999.0   0.00  
 146    9:00  350.0    57   86.7    10    243.1    16.1    999.0   0.00  
 146    9:10  607.0    57   87.1    10    260.6    14.3    999.0   0.00  
 146    9:20  679.0    58   84.0     9    265.0    15.5    999.0   0.00  
 146    9:30  589.0    58   85.8    10    252.4    17.9    999.0   0.00  
 146    9:40  932.0    58   83.8    10    290.0    18.5    999.0   0.00  
 146    9:50  790.0    58   81.5    11    307.4    17.9    999.0   0.00  
 146   10:00  520.0    57   83.5    12    297.7    17.3    999.0   0.00  
 146   10:10  439.0    56   85.0    12    296.7    20.3    999.0   0.00  
 146   10:20  606.0    57   83.4    11    303.2    19.7    999.0   0.00  
 146   10:30  957.0    58   79.6    10    304.0    16.1    999.0   0.00  
 146   10:40  853.0    58   78.1    11    304.5    19.1    999.0   0.00  
 146   10:50  915.0    59   74.4    10    244.3    15.5    999.0   0.00  
 146   11:00  924.0    59   76.4    10    217.8    16.7    999.0   0.00  
 146   11:10  864.0    58   77.2     9    241.0    15.5    999.0   0.00  
 146   11:20  917.0    59   75.5    10    223.5    14.9    999.0   0.00  
 146   11:30  939.0    59   71.2    10    225.3    14.9    999.0   0.00  
 146   11:40  948.0    60   66.3     9    247.0    14.3    999.0   0.00  
 146   11:50  953.0    59   65.9     9    254.3    15.5    999.0   0.00  
 146   12:00  950.0    59   66.0     9    257.9    16.1    999.0   0.00  
 146   12:10  960.0    59   67.6    10    237.2    14.9    999.0   0.00  
 146   12:20  935.0    59   73.5    10    242.9    16.7    999.0   0.00  
 146   12:30  952.0    59   73.4     9    240.9    14.9    999.0   0.00  
 146   12:40  944.0    60   70.7     8    233.2    14.9    999.0   0.00  
 146   12:50  885.0    60   71.9     8    226.7    13.1    999.0   0.00  
 146   13:00  928.0    60   67.9     8    242.6    13.1    999.0   0.00  
 146   13:10  920.0    60   65.6     8    241.7    14.9    999.0   0.00  
 146   13:20  906.0    61   66.8     9    223.4    14.3    999.0   0.00  
 146   13:30  895.0    61   64.6     8    231.7    13.1    999.0   0.00  
 146   13:40  877.0    60   64.8     9    231.6    17.9    999.0   0.00  
 146   13:50  864.0    60   65.2    10    231.6    14.9    999.0   0.00  
 146   14:00  843.0    59   71.7    11    232.1    14.9    999.0   0.00  
 146   14:10  727.0    59   75.2    10    256.9    16.1    999.0   0.00  
 146   14:20  716.0    59   73.4    10    285.4    17.9    999.0   0.00  
 146   14:30  800.0    59   77.0    11    288.2    19.1    999.0   0.00  
 146   14:40  686.0    59   78.2    11    292.3    19.1    999.0   0.00  
 146   14:50  636.0    59   78.5    11    292.7    17.3    999.0   0.00  
 146   15:00  733.0    59   80.5    11    300.6    17.9    999.0   0.00  
 146   15:10  562.0    58   80.7    12    313.6    17.3    999.0   0.00  
 146   15:20  684.0    58   81.6    13    330.0    19.1    999.0   0.00  
 146   15:30  640.0    60   78.3    11    312.8    16.1    999.0   0.00  
 146   15:40  602.0    58   81.6    12    304.1    17.3    999.0   0.00  
 146   15:50  473.0    58   82.1    12    308.9    15.5    999.0   0.00  
 146   16:00  392.0    58   84.2    11    301.6    15.5    999.0   0.00  
 146   16:10  406.0    58   83.6    12    300.9    17.9    999.0   0.00  
 146   16:20  306.0    57   84.8    11    301.1    16.1    999.0   0.00  
 146   16:30  245.0    57   87.1    10    309.9    16.1    999.0   0.00  
 146   16:40  225.0    57   85.8    12    306.6    18.5    999.0   0.00  
 146   16:50  211.0    56   87.1    12    311.3    16.7    999.0   0.00  
 146   17:00  272.0    57   86.5    12    315.8    16.7    999.0   0.00  
 146   17:10  302.0    57   86.4    12    323.6    19.7    999.0   0.00  
 146   17:20  187.0    57   86.8    11    315.4    16.1    999.0   0.00  
 146   17:30  134.0    56   89.2    12    311.3    18.5    999.0   0.00  
 146   17:40  106.0    55   90.7    11    311.7    16.7    999.0   0.00  
 146   17:50   87.0    55   90.6    10    316.7    15.5    999.0   0.00  
 146   18:00  108.0    55   91.2    13    329.6    17.3    999.0   0.00  
 146   18:10   84.0    55   92.1    13    329.3    17.9    999.0   0.00  
 146   18:20   51.0    54   92.9    12    329.7    16.1    999.0   0.00  
 146   18:30   31.0    54   94.0    12    318.7    16.1    999.0   0.00  
 146   18:40   19.0    54   94.2    12    322.3    17.3    999.0   0.00  
 146   18:50   12.0    54   94.4    12    308.7    17.3    999.0   0.00  
 146   19:00    7.0    53   94.6    11    316.6    16.7    999.0   0.00  
 146   19:10    2.0    53   94.9    12    319.9    17.9    999.0   0.00  
 146   19:20    0.0    53   95.2    12    325.4    16.7    999.0   0.00  
 146   19:30    0.0    53   95.4    12    319.9    17.3    999.0   0.00  
 146   19:40    0.0    53   95.3    11    309.9    16.7    999.0   0.00  
 146   19:50    0.0    53   95.1    11    307.6    14.9    999.0   0.00  
 146   20:00    0.0    53   95.2    11    312.6    15.5    999.0   0.00  
 146   20:10    0.0    53   94.8    12    318.8    16.7    999.0   0.00  
 146   20:20    0.0    53   95.0    10    317.9    14.9    999.0   0.00  
 146   20:30    0.0    53   95.3    10    318.4    14.9    999.0   0.00  
 146   20:40    0.0    53   95.2    10    311.4    13.7    999.0   0.00  
 146   20:50    0.0    54   95.5    12    327.7    17.3    999.0   0.00  
 146   21:00    0.0    54   96.1    14    333.6    18.5    999.0   0.00  
 146   21:10    0.0    53   96.4    14    338.8    20.3    999.0   0.00  
 146   21:20    0.0    53   96.2    13    338.6    17.9    999.0   0.00  
 146   21:30    0.0    53   96.4    13    332.4    18.5    999.0   0.00  
 146   21:40    0.0    53   96.3    12    330.1    16.1    999.0   0.00  
 146   21:50    0.0    53   96.5    10    320.8    14.3    999.0   0.00  
 146   22:00    0.0    53   96.4     8    311.4    11.9    999.0   0.00  
 146   22:10    0.0    54   96.6     6    297.2    10.8    999.0   0.00  
 146   22:20    0.0    54   96.7     7    287.5    11.9    999.0   0.00  
 146   22:30    0.0    53   96.7     7    299.7    10.8    999.0   0.00  
 146   22:40    0.0    53   96.8     6    300.4    11.3    999.0   0.00  
 146   22:50    0.0    53   96.7     7    300.6    11.9    999.0   0.00  
 146   23:00    0.0    53   96.9     7    309.9    11.3    999.0   0.00  
 146   23:10    0.0    53   97.0     7    290.6    10.8    999.0   0.00  
 146   23:20    0.0    53   97.0     5    287.4     8.4    999.0   0.00  
 146   23:30    0.0    53   96.9     5    273.2     9.0    999.0   0.00  
 146   23:40    0.0    53   96.9     5    282.3     7.8    999.0   0.00  
 146   23:50    0.0    53   96.8     5    278.3     9.6    999.0   0.00  
 147    0:00    0.0    53   96.7     5    295.5     7.2    999.0   0.00  
 147    0:10    0.0    53   96.7     5    295.3     7.8    999.0   0.00  
 147    0:20    0.0    53   96.8     5    297.6     9.0    999.0   0.00  
 147    0:30    0.0    53   96.7     4    248.4     6.6    999.0   0.00  
 147    0:40    0.0    53   96.6     5    249.3     7.8    999.0   0.00  
 147    0:50    0.0    53   96.9     5    206.2     9.0    999.0   0.00  
 147    1:00    0.0    53   96.9     4    203.0     6.6    999.0   0.00  
 147    1:10    0.0    53   96.8     4    196.5     6.0    999.0   0.00  
 147    1:20    0.0    53   96.8     1    173.3     4.2    999.0   0.00  
 147    1:30    0.0    53   96.8     3    160.4     6.0    999.0   0.00  
 147    1:40    0.0    53   96.9     4    161.6     6.6    999.0   0.00  
 147    1:50    0.0    53   96.7     4    157.8     6.6    999.0   0.00  

Return to Cactus Peak graphs page.


Western Regional Climate Center,wrcc@dri.edu